Terminal Aerodrome Forecast
Issued by NWS Twin Cities, MN

Home | Current Version | Previous Version | Text Only | Print | Product List | Glossary Off
Versions: 1 2 3 4 5 6 7 8 9 10 11 12 13 14 15 16 17 18 19 20 21 22 23 24 25 26

000
FTUS43 KMPX 220300 AAA
TAFMSP
TAF AMD
KMSP 220303Z 2203/2306 33013G23KT P6SM SKC
     FM220500 33010KT P6SM SKC
     FM220800 33006KT P6SM SKC
     FM221800 02006KT P6SM SCT250
     FM230000 07005KT P6SM SCT250=

USA.gov is the U.S. government's official web portal to all federal, state and local government web resources and services.